Accueil
METAR-TAF:

METAR-TAF

Aéroports :

Base aérienne 120 Cazaux

Cazaux, France

latitude: 44-32N, longitude: 001-08W, altitude: 25 m

Observation

Le bulletin a été fait il y a 30 minutes, à 20:00 UTC
Vent 8 kt de nord/nord-est
Température 9°C
Humidité 66%
Pression 1029 hPa
Visibilité 10 km ou plus

METAR: LFBC 212000Z AUTO 02008KT 9999 // NSC 09/03 Q1029

Heure: 21:30 (20:30 UTC)

Prévision

Le bulletin a été fait il y a 6 heures et 30 minutes, à 14:00 UTC
Prévision valable du 21 à 15 UTC au 22 à 15 UTC
Vent 10 kt de nord-est avec des rafales jusqu'à 20 kt
Visibilité 10 km ou plus
Nuages épars à une hauteur de 4000 ft
Evoluant progressivement
du 22 à 07 UTC au 22 à 09 UTC
pluie
Temporairement
du 22 à 12 UTC au 22 à 15 UTC
Nuages fragmentés à une hauteur de 1000 ft

TAF: LFBC 211400Z 2115/2215 05010G20KT 9999 SCT040 BECMG 2207/2209 RA TEMPO 2212/2215 BKN010

Observations et prévisions météorologiques de plus de 4000 aéroports (messages METAR et TAF).

Les stations disponibles sont représentées par des disques jaunes et rouges sur la carte.

Passer la souris dessus pour voir le nom de la station.

Cliquer dessus pour voir les observations et prévisions météorologiques.

Pour changer de carte: cliquez sur les boutons verts avec une croix noire pour zoomer, sur le bouton vert avec un tiret pour effectuer un zoom arrière, ou sur les flèches vertes pour les cartes adjacentes.


METAR-TAF: